createdAt,value
2018-08-09T00:00:04.145Z,937.46
2018-08-09T00:01:04.145Z,937.47
2018-08-09T00:02:04.132Z,937.49
2018-08-09T00:03:04.126Z,937.49
2018-08-09T00:04:04.214Z,937.55
2018-08-09T00:05:04.106Z,937.55
2018-08-09T00:06:04.099Z,937.50
2018-08-09T00:07:04.089Z,937.49
2018-08-09T00:08:04.082Z,937.52
2018-08-09T00:09:04.070Z,937.54
2018-08-09T00:10:04.069Z,937.52
2018-08-09T00:11:04.053Z,937.55
2018-08-09T00:12:04.043Z,937.56
2018-08-09T00:13:04.035Z,937.59
2018-08-09T00:14:04.028Z,937.60
2018-08-09T00:15:04.019Z,937.67
2018-08-09T00:16:04.108Z,937.69
2018-08-09T00:17:03.995Z,937.72
2018-08-09T00:18:03.985Z,937.78
2018-08-09T00:19:03.976Z,937.82
2018-08-09T00:20:03.969Z,937.89
2018-08-09T00:21:03.959Z,937.89
2018-08-09T00:22:03.950Z,937.95
2018-08-09T00:23:03.941Z,937.99
2018-08-09T00:24:03.932Z,938.00
2018-08-09T00:25:03.922Z,938.03
2018-08-09T00:26:03.914Z,938.07
2018-08-09T00:27:03.905Z,938.08
2018-08-09T00:28:03.995Z,938.10
2018-08-09T00:29:03.886Z,938.13
2018-08-09T00:30:03.877Z,938.13
2018-08-09T00:31:03.869Z,938.20
2018-08-09T00:32:03.856Z,938.17
2018-08-09T00:33:03.849Z,938.17
2018-08-09T00:34:03.839Z,938.19
2018-08-09T00:35:03.830Z,938.14
2018-08-09T00:36:03.821Z,938.16
2018-08-09T00:37:03.812Z,938.15
2018-08-09T00:38:03.803Z,938.13
2018-08-09T00:39:03.794Z,938.14
2018-08-09T00:40:03.884Z,938.15
2018-08-09T00:41:03.775Z,938.17
2018-08-09T00:42:03.767Z,938.24
2018-08-09T00:43:03.757Z,938.23
2018-08-09T00:44:03.748Z,938.27
2018-08-09T00:45:03.738Z,938.31
2018-08-09T00:46:03.730Z,938.31
2018-08-09T00:47:03.722Z,938.37
2018-08-09T00:48:03.712Z,938.40
2018-08-09T00:49:03.702Z,938.44
2018-08-09T00:50:03.698Z,938.49
2018-08-09T00:51:03.686Z,938.49
2018-08-09T00:52:03.684Z,938.57
2018-08-09T00:53:03.668Z,938.64
2018-08-09T00:54:03.664Z,938.63
2018-08-09T00:55:03.649Z,938.64
2018-08-09T00:56:03.639Z,938.63
2018-08-09T00:57:03.632Z,938.59
2018-08-09T00:58:03.622Z,938.61
2018-08-09T00:59:03.613Z,938.62
2018-08-09T01:00:03.612Z,938.62
2018-08-09T01:01:03.595Z,938.63
2018-08-09T01:02:03.589Z,938.64
2018-08-09T01:03:03.578Z,938.63
2018-08-09T01:04:03.567Z,938.65
2018-08-09T01:05:03.558Z,938.68
2018-08-09T01:06:03.554Z,938.65
2018-08-09T01:07:03.543Z,938.66
2018-08-09T01:08:03.533Z,938.68
2018-08-09T01:09:03.523Z,938.69
2018-08-09T01:10:03.736Z,938.78
2018-08-09T01:11:03.507Z,938.76
2018-08-09T01:12:03.498Z,938.76
2018-08-09T01:13:03.489Z,938.80
2018-08-09T01:14:03.478Z,938.83
2018-08-09T01:15:03.472Z,938.82
2018-08-09T01:16:03.465Z,938.83
2018-08-09T01:17:03.457Z,938.81
2018-08-09T01:18:03.445Z,938.83
2018-08-09T01:19:03.435Z,938.82
2018-08-09T01:20:03.426Z,938.80
2018-08-09T01:21:03.416Z,938.85
2018-08-09T01:22:03.408Z,938.84
2018-08-09T01:23:03.398Z,938.84
2018-08-09T01:24:03.390Z,938.89
2018-08-09T01:25:03.381Z,938.88
2018-08-09T01:26:03.373Z,938.85
2018-08-09T01:27:03.364Z,938.89
2018-08-09T01:28:03.355Z,938.88
2018-08-09T01:29:03.345Z,938.90
2018-08-09T01:30:03.337Z,938.85
2018-08-09T01:31:03.332Z,938.88
2018-08-09T01:32:03.319Z,938.87
2018-08-09T01:33:03.310Z,938.82
2018-08-09T01:34:03.300Z,938.87
2018-08-09T01:35:03.294Z,938.87
2018-08-09T01:36:03.286Z,938.86
2018-08-09T01:37:03.275Z,938.85
2018-08-09T01:38:03.269Z,938.84
2018-08-09T01:39:03.258Z,938.89
2018-08-09T01:40:03.348Z,938.86
2018-08-09T01:41:03.239Z,938.83
2018-08-09T01:42:03.229Z,938.86
2018-08-09T01:43:03.222Z,938.87
2018-08-09T01:44:03.212Z,938.87
2018-08-09T01:45:03.203Z,938.87
2018-08-09T01:46:03.297Z,938.85
2018-08-09T01:47:03.188Z,938.82
2018-08-09T01:48:03.176Z,938.86
2018-08-09T01:49:03.168Z,938.82
2018-08-09T01:50:03.161Z,938.82
2018-08-09T01:51:03.202Z,938.80
2018-08-09T01:52:03.143Z,938.78
2018-08-09T01:53:03.133Z,938.82
2018-08-09T01:54:03.124Z,938.81
2018-08-09T01:55:03.116Z,938.82
2018-08-09T01:56:03.107Z,938.83
2018-08-09T01:57:03.098Z,938.83
2018-08-09T01:58:03.090Z,938.85
2018-08-09T01:59:03.081Z,938.87
2018-08-09T02:00:03.070Z,938.89
2018-08-09T02:01:03.062Z,938.91
2018-08-09T02:02:03.053Z,938.92
2018-08-09T02:03:03.045Z,938.94
2018-08-09T02:04:03.035Z,938.98
2018-08-09T02:05:03.078Z,939.02
2018-08-09T02:06:03.020Z,938.96
2018-08-09T02:07:03.010Z,938.99
2018-08-09T02:08:02.999Z,939.02
2018-08-09T02:09:02.990Z,939.01
2018-08-09T02:10:02.981Z,939.00
2018-08-09T02:11:02.972Z,939.00
2018-08-09T02:12:02.964Z,938.99
2018-08-09T02:13:02.955Z,939.00
2018-08-09T02:14:02.946Z,939.00
2018-08-09T02:15:02.939Z,939.00
2018-08-09T02:16:03.078Z,939.02
2018-08-09T02:17:02.920Z,939.09
2018-08-09T02:18:02.911Z,939.06
2018-08-09T02:19:02.901Z,939.06
2018-08-09T02:20:02.893Z,939.01
2018-08-09T02:21:02.882Z,939.03
2018-08-09T02:22:02.974Z,939.04
2018-08-09T02:23:02.867Z,939.06
2018-08-09T02:24:02.856Z,939.03
2018-08-09T02:25:02.847Z,939.06
2018-08-09T02:26:02.838Z,939.04
2018-08-09T02:27:02.831Z,939.04
2018-08-09T02:28:02.820Z,939.06
2018-08-09T02:29:02.818Z,939.00
2018-08-09T02:30:02.803Z,939.02
2018-08-09T02:31:02.793Z,938.99
2018-08-09T02:32:02.786Z,938.97
2018-08-09T02:33:02.774Z,939.00
2018-08-09T02:34:02.765Z,939.00
2018-08-09T02:35:02.757Z,939.01
2018-08-09T02:36:02.748Z,939.00
2018-08-09T02:37:02.739Z,938.95
2018-08-09T02:38:02.729Z,938.95
2018-08-09T02:39:02.723Z,938.95
2018-08-09T02:40:02.811Z,938.97
2018-08-09T02:41:02.705Z,938.96
2018-08-09T02:42:02.692Z,938.94
2018-08-09T02:43:02.685Z,938.92
2018-08-09T02:44:02.675Z,938.93
2018-08-09T02:45:02.666Z,938.95
2018-08-09T02:46:02.658Z,938.97
2018-08-09T02:47:02.655Z,938.95
2018-08-09T02:48:02.639Z,938.96
2018-08-09T02:49:02.630Z,938.93
2018-08-09T02:50:02.621Z,938.97
2018-08-09T02:51:02.611Z,938.99
2018-08-09T02:52:02.602Z,939.01
2018-08-09T02:53:02.593Z,938.96
2018-08-09T02:54:02.585Z,938.94
2018-08-09T02:55:02.575Z,938.97
2018-08-09T02:56:02.563Z,938.98
2018-08-09T02:57:02.556Z,938.97
2018-08-09T02:58:02.647Z,939.01
2018-08-09T02:59:02.538Z,939.02
2018-08-09T03:00:02.528Z,939.00
2018-08-09T03:01:02.519Z,938.98
2018-08-09T03:02:02.509Z,938.97
2018-08-09T03:03:02.505Z,938.98
2018-08-09T03:04:02.496Z,938.93
2018-08-09T03:05:02.482Z,938.97
2018-08-09T03:06:02.473Z,938.92
2018-08-09T03:07:02.464Z,938.90
2018-08-09T03:08:02.459Z,938.95
2018-08-09T03:09:02.444Z,938.92
2018-08-09T03:10:02.540Z,938.91
2018-08-09T03:11:02.426Z,938.93
2018-08-09T03:12:02.419Z,938.92
2018-08-09T03:13:02.408Z,938.89
2018-08-09T03:14:02.401Z,938.87
2018-08-09T03:15:02.395Z,938.86
2018-08-09T03:16:02.483Z,938.81
2018-08-09T03:17:02.374Z,938.86
2018-08-09T03:18:02.362Z,938.85
2018-08-09T03:19:02.352Z,938.82
2018-08-09T03:20:02.349Z,938.80
2018-08-09T03:21:02.334Z,938.79
2018-08-09T03:22:02.325Z,938.79
2018-08-09T03:23:02.316Z,938.78
2018-08-09T03:24:02.305Z,938.73
2018-08-09T03:25:02.296Z,938.70
2018-08-09T03:26:02.288Z,938.71
2018-08-09T03:27:02.281Z,938.66
2018-08-09T03:28:02.271Z,938.67
2018-08-09T03:29:02.260Z,938.66
2018-08-09T03:30:02.250Z,938.63
2018-08-09T03:31:02.243Z,938.59
2018-08-09T03:32:02.232Z,938.57
2018-08-09T03:33:02.222Z,938.54
2018-08-09T03:34:02.213Z,938.52
2018-08-09T03:35:02.204Z,938.54
2018-08-09T03:36:02.195Z,938.47
2018-08-09T03:37:02.185Z,938.47
2018-08-09T03:38:02.175Z,938.41
2018-08-09T03:39:02.169Z,938.46
2018-08-09T03:40:02.157Z,938.43
2018-08-09T03:41:02.148Z,938.41
2018-08-09T03:42:02.138Z,938.37
2018-08-09T03:43:02.129Z,938.35
2018-08-09T03:44:02.118Z,938.35
2018-08-09T03:45:02.109Z,938.30
2018-08-09T03:46:02.300Z,938.32
2018-08-09T03:47:02.091Z,938.32
2018-08-09T03:48:02.080Z,938.33
2018-08-09T03:49:02.070Z,938.29
2018-08-09T03:50:02.062Z,938.29
2018-08-09T03:51:02.053Z,938.25
2018-08-09T03:52:02.143Z,938.20
2018-08-09T03:53:02.034Z,938.19
2018-08-09T03:54:02.024Z,938.15
2018-08-09T03:55:02.015Z,938.11
2018-08-09T03:56:02.005Z,938.13
2018-08-09T03:57:01.996Z,938.10
2018-08-09T03:58:02.084Z,938.05
2018-08-09T03:59:01.976Z,938.02
2018-08-09T04:00:01.968Z,937.98
2018-08-09T04:01:01.959Z,937.94
2018-08-09T04:02:01.947Z,937.90
2018-08-09T04:03:01.939Z,937.87
2018-08-09T04:04:02.029Z,937.85
2018-08-09T04:05:01.920Z,937.77
2018-08-09T04:06:01.911Z,937.76
2018-08-09T04:07:01.903Z,937.78
2018-08-09T04:08:01.889Z,937.79
2018-08-09T04:09:01.880Z,937.77
2018-08-09T04:10:02.024Z,937.76
2018-08-09T04:11:01.862Z,937.69
2018-08-09T04:12:01.906Z,937.65
2018-08-09T04:13:01.842Z,937.63
2018-08-09T04:14:01.834Z,937.58
2018-08-09T04:15:01.823Z,937.56
2018-08-09T04:16:01.914Z,937.47
2018-08-09T04:17:01.804Z,937.44
2018-08-09T04:18:01.793Z,937.35
2018-08-09T04:19:01.785Z,937.34
2018-08-09T04:20:01.776Z,937.22
2018-08-09T04:21:01.765Z,937.09
2018-08-09T04:22:01.756Z,937.01
2018-08-09T04:23:01.745Z,936.97
2018-08-09T04:24:01.734Z,936.92
2018-08-09T04:25:01.726Z,936.84
2018-08-09T04:26:01.717Z,936.86
2018-08-09T04:27:01.706Z,936.84
2018-08-09T04:28:01.795Z,936.79
2018-08-09T04:29:01.685Z,936.82
2018-08-09T04:30:01.678Z,936.77
2018-08-09T04:31:01.664Z,936.74
2018-08-09T04:32:01.655Z,936.68
2018-08-09T04:33:01.646Z,936.68
2018-08-09T04:34:01.736Z,936.66
2018-08-09T04:35:01.627Z,936.66
2018-08-09T04:36:01.616Z,936.66
2018-08-09T04:37:01.604Z,936.69
2018-08-09T04:38:01.639Z,936.67
2018-08-09T04:39:01.584Z,936.66
2018-08-09T04:40:01.723Z,936.61
2018-08-09T04:41:01.562Z,936.55
2018-08-09T04:42:01.551Z,936.52
2018-08-09T04:43:01.543Z,936.45
2018-08-09T04:44:01.534Z,936.40
2018-08-09T04:45:01.529Z,936.30
2018-08-09T04:46:01.612Z,936.24
2018-08-09T04:47:01.501Z,936.20
2018-08-09T04:48:01.490Z,936.13
2018-08-09T04:49:01.480Z,936.04
2018-08-09T04:50:01.469Z,935.93
2018-08-09T04:51:01.460Z,935.83
2018-08-09T04:52:01.448Z,935.75
2018-08-09T04:53:01.436Z,935.65
2018-08-09T04:54:01.426Z,935.60
2018-08-09T04:55:01.417Z,935.57
2018-08-09T04:56:01.405Z,935.59
2018-08-09T04:57:01.395Z,935.60
2018-08-09T04:58:01.408Z,935.65
2018-08-09T04:59:01.374Z,935.64
2018-08-09T05:00:01.364Z,935.67
2018-08-09T05:01:01.353Z,935.69
2018-08-09T05:02:01.343Z,935.65
2018-08-09T05:03:01.332Z,935.59
2018-08-09T05:04:01.322Z,935.58
2018-08-09T05:05:01.311Z,935.54
2018-08-09T05:06:01.302Z,935.53
2018-08-09T05:07:01.292Z,935.60
2018-08-09T05:08:01.281Z,935.62
2018-08-09T05:09:01.271Z,935.68
2018-08-09T05:10:01.261Z,935.75
2018-08-09T05:11:01.250Z,935.79
2018-08-09T05:12:01.239Z,935.76
2018-08-09T05:13:01.229Z,935.73
2018-08-09T05:14:01.218Z,935.70
2018-08-09T05:15:01.208Z,935.57
2018-08-09T05:16:01.358Z,935.41
2018-08-09T05:17:01.188Z,935.36
2018-08-09T05:18:01.178Z,935.26
2018-08-09T05:19:01.167Z,935.12
2018-08-09T05:20:01.163Z,935.08
2018-08-09T05:21:01.145Z,935.00
2018-08-09T05:22:01.334Z,935.01
2018-08-09T05:23:01.147Z,934.85
2018-08-09T05:24:01.113Z,934.80
2018-08-09T05:25:01.104Z,934.74
2018-08-09T05:26:01.092Z,934.53
2018-08-09T05:27:01.083Z,934.52
2018-08-09T05:28:01.071Z,934.53
2018-08-09T05:29:01.059Z,934.55
2018-08-09T05:30:01.049Z,934.58
2018-08-09T05:31:01.038Z,934.67
2018-08-09T05:32:01.028Z,934.66
2018-08-09T05:33:01.017Z,934.71
2018-08-09T05:34:01.043Z,934.77
2018-08-09T05:35:00.998Z,934.79
2018-08-09T05:36:00.984Z,934.84
2018-08-09T05:37:00.973Z,934.86
2018-08-09T05:38:00.961Z,934.87
2018-08-09T05:39:00.952Z,934.89
2018-08-09T05:40:01.041Z,934.92
2018-08-09T05:41:00.936Z,934.91
2018-08-09T05:42:00.924Z,934.93
2018-08-09T05:43:00.916Z,934.81
2018-08-09T05:44:00.903Z,934.79
2018-08-09T05:45:00.892Z,934.81
2018-08-09T05:46:01.032Z,934.81
2018-08-09T05:47:00.877Z,934.81
2018-08-09T05:48:00.859Z,934.80
2018-08-09T05:49:00.851Z,934.80
2018-08-09T05:50:00.839Z,934.81
2018-08-09T05:51:00.829Z,934.80
2018-08-09T05:52:00.970Z,934.83
2018-08-09T05:53:00.897Z,934.86
2018-08-09T05:54:00.797Z,934.85
2018-08-09T05:55:00.788Z,934.83
2018-08-09T05:56:00.774Z,934.83
2018-08-09T05:57:00.768Z,934.84
2018-08-09T05:58:00.755Z,934.77
2018-08-09T05:59:00.743Z,934.86
2018-08-09T06:00:00.729Z,934.83
2018-08-09T06:01:00.716Z,934.84
2018-08-09T06:02:00.708Z,934.89
2018-08-09T06:03:00.695Z,934.91
2018-08-09T06:04:00.683Z,934.98
2018-08-09T06:05:00.673Z,935.06
2018-08-09T06:06:00.663Z,935.09
2018-08-09T06:07:00.652Z,935.13
2018-08-09T06:08:00.641Z,935.15
2018-08-09T06:09:00.631Z,935.25
2018-08-09T06:10:00.621Z,935.25
2018-08-09T06:11:00.609Z,935.19
2018-08-09T06:12:00.599Z,935.18
2018-08-09T06:13:00.593Z,935.23
2018-08-09T06:14:00.578Z,935.28
2018-08-09T06:15:00.572Z,935.30
2018-08-09T06:16:00.562Z,935.30
2018-08-09T06:17:00.548Z,935.30
2018-08-09T06:18:00.535Z,935.29
2018-08-09T06:19:00.525Z,935.23
2018-08-09T06:20:00.514Z,935.27
2018-08-09T06:21:00.505Z,935.25
2018-08-09T06:22:00.644Z,935.28
2018-08-09T06:23:00.484Z,935.33
2018-08-09T06:24:00.473Z,935.33
2018-08-09T06:25:00.462Z,935.28
2018-08-09T06:26:00.452Z,935.26
2018-08-09T06:27:00.442Z,935.20
2018-08-09T06:28:00.429Z,935.13
2018-08-09T06:29:00.421Z,935.11
2018-08-09T06:30:00.411Z,935.13
2018-08-09T06:31:00.430Z,935.07
2018-08-09T06:32:00.387Z,935.06
2018-08-09T06:33:00.379Z,935.05
2018-08-09T06:34:00.368Z,935.00
2018-08-09T06:35:00.357Z,934.97
2018-08-09T06:36:00.345Z,934.98
2018-08-09T06:37:00.336Z,934.99
2018-08-09T06:38:00.324Z,935.03
2018-08-09T06:39:00.315Z,935.19
2018-08-09T06:40:00.303Z,935.18
2018-08-09T06:41:00.293Z,935.20
2018-08-09T06:42:00.284Z,935.22
2018-08-09T06:43:00.271Z,935.22
2018-08-09T06:44:00.259Z,935.20
2018-08-09T06:45:00.253Z,935.17
2018-08-09T06:46:00.440Z,935.20
2018-08-09T06:47:00.230Z,935.14
2018-08-09T06:48:00.216Z,935.11
2018-08-09T06:49:00.207Z,935.12
2018-08-09T06:50:00.197Z,935.05
2018-08-09T06:51:00.185Z,935.06
2018-08-09T06:52:00.324Z,935.05
2018-08-09T06:53:00.168Z,934.97
2018-08-09T06:54:00.154Z,934.94
2018-08-09T06:55:00.142Z,934.97
2018-08-09T06:56:00.132Z,934.97
2018-08-09T06:57:00.121Z,934.94
2018-08-09T06:58:00.110Z,934.94
2018-08-09T06:59:00.102Z,934.87
2018-08-09T07:00:00.089Z,934.80
2018-08-09T07:01:00.078Z,934.77
2018-08-09T07:02:00.069Z,934.76
2018-08-09T07:03:00.057Z,934.68
2018-08-09T07:04:00.146Z,934.71
2018-08-09T07:05:00.037Z,934.72
2018-08-09T07:06:00.026Z,934.63
2018-08-09T07:07:00.041Z,934.71
2018-08-09T07:08:00.006Z,934.74
2018-08-09T07:08:59.993Z,934.80
2018-08-09T07:10:00.082Z,934.93
2018-08-09T07:10:59.972Z,934.94
2018-08-09T07:11:59.960Z,935.02
2018-08-09T07:12:59.950Z,935.13
2018-08-09T07:13:59.940Z,935.18
2018-08-09T07:14:59.928Z,935.22
2018-08-09T07:16:00.069Z,935.22
2018-08-09T07:16:59.908Z,935.22
2018-08-09T07:17:59.896Z,935.22
2018-08-09T07:18:59.887Z,935.20
2018-08-09T07:19:59.880Z,935.24
2018-08-09T07:20:59.866Z,935.11
2018-08-09T07:21:59.955Z,935.10
2018-08-09T07:22:59.844Z,935.04
2018-08-09T07:23:59.834Z,934.95
2018-08-09T07:24:59.823Z,934.79
2018-08-09T07:25:59.812Z,934.75
2018-08-09T07:26:59.805Z,934.60
2018-08-09T07:27:59.791Z,934.46
2018-08-09T07:28:59.780Z,934.45
2018-08-09T07:29:59.772Z,934.43
2018-08-09T07:30:59.761Z,934.40
2018-08-09T07:31:59.750Z,934.30
2018-08-09T07:32:59.739Z,934.29
2018-08-09T07:33:59.828Z,934.21
2018-08-09T07:34:59.723Z,934.20
2018-08-09T07:35:59.707Z,934.14
2018-08-09T07:36:59.695Z,934.08
2018-08-09T07:37:59.688Z,934.10
2018-08-09T07:38:59.674Z,933.98
2018-08-09T07:39:59.814Z,933.75
2018-08-09T07:40:59.652Z,933.74
2018-08-09T07:41:59.643Z,933.72
2018-08-09T07:42:59.635Z,933.70
2018-08-09T07:43:59.621Z,933.81
2018-08-09T07:44:59.610Z,933.85
2018-08-09T07:45:59.600Z,934.01
2018-08-09T07:46:59.589Z,933.82
2018-08-09T07:47:59.577Z,933.70
2018-08-09T07:48:59.567Z,933.81
2018-08-09T07:49:59.556Z,933.68
2018-08-09T07:50:59.548Z,933.70
2018-08-09T07:51:59.532Z,933.55
2018-08-09T07:52:59.521Z,933.75
2018-08-09T07:53:59.511Z,933.82
2018-08-09T07:54:59.501Z,933.76
2018-08-09T07:55:59.490Z,933.72
2018-08-09T07:56:59.497Z,933.65
2018-08-09T07:57:59.619Z,933.67
2018-08-09T07:58:59.457Z,933.66
2018-08-09T07:59:59.444Z,933.66
2018-08-09T08:00:59.483Z,933.87
2018-08-09T08:01:59.424Z,933.99
2018-08-09T08:02:59.414Z,934.06
2018-08-09T08:03:59.400Z,933.84
2018-08-09T08:04:59.390Z,933.95
2018-08-09T08:05:59.385Z,933.97
2018-08-09T08:06:59.368Z,933.89
2018-08-09T08:07:59.357Z,934.03
2018-08-09T08:08:59.346Z,933.95
2018-08-09T08:09:59.484Z,933.84
2018-08-09T08:10:59.328Z,933.89
2018-08-09T08:11:59.313Z,933.87
2018-08-09T08:12:59.301Z,933.93
2018-08-09T08:13:59.291Z,933.85
2018-08-09T08:14:59.296Z,933.68
2018-08-09T08:15:59.268Z,933.70
2018-08-09T08:16:59.258Z,933.74
2018-08-09T08:17:59.247Z,933.84
2018-08-09T08:18:59.235Z,933.67
2018-08-09T08:19:59.225Z,933.67
2018-08-09T08:20:59.214Z,933.68
2018-08-09T08:21:59.357Z,933.68
2018-08-09T08:22:59.193Z,933.42
2018-08-09T08:23:59.180Z,933.53
2018-08-09T08:24:59.168Z,933.59
2018-08-09T08:25:59.158Z,933.66
2018-08-09T08:26:59.147Z,933.69
2018-08-09T08:27:59.238Z,933.75
2018-08-09T08:28:59.125Z,933.77
2018-08-09T08:29:59.115Z,933.85
2018-08-09T08:30:59.104Z,933.88
2018-08-09T08:31:59.094Z,933.98
2018-08-09T08:32:59.082Z,933.99
2018-08-09T08:33:59.073Z,934.00
2018-08-09T08:34:59.059Z,934.01
2018-08-09T08:35:59.049Z,933.93
2018-08-09T08:36:59.038Z,933.87
2018-08-09T08:37:59.028Z,933.70
2018-08-09T08:38:59.019Z,933.86
2018-08-09T08:39:59.004Z,934.03
2018-08-09T08:40:58.996Z,934.18
2018-08-09T08:41:58.984Z,934.38
2018-08-09T08:42:58.972Z,934.48
2018-08-09T08:43:58.961Z,934.44
2018-08-09T08:44:58.951Z,934.44
2018-08-09T08:45:58.939Z,934.46
2018-08-09T08:46:58.929Z,934.51
2018-08-09T08:47:58.916Z,934.47
2018-08-09T08:48:58.907Z,934.47
2018-08-09T08:49:58.896Z,934.41
2018-08-09T08:50:58.886Z,934.37
2018-08-09T08:51:58.875Z,934.26
2018-08-09T08:52:58.863Z,934.07
2018-08-09T08:53:58.854Z,934.15
2018-08-09T08:54:58.842Z,934.10
2018-08-09T08:55:58.830Z,934.05
2018-08-09T08:56:58.820Z,934.03
2018-08-09T08:57:58.810Z,933.87
2018-08-09T08:58:58.799Z,933.90
2018-08-09T08:59:58.787Z,933.96
2018-08-09T09:00:58.808Z,934.05
2018-08-09T09:01:58.767Z,934.14
2018-08-09T09:02:58.757Z,933.94
2018-08-09T09:03:58.745Z,933.72
2018-08-09T09:04:58.768Z,933.48
2018-08-09T09:05:58.724Z,933.41
2018-08-09T09:06:58.726Z,933.31
2018-08-09T09:07:58.702Z,933.41
2018-08-09T09:08:58.690Z,933.47
2018-08-09T09:09:58.680Z,933.38
2018-08-09T09:10:58.669Z,933.36
2018-08-09T09:11:58.658Z,933.37
2018-08-09T09:12:58.647Z,933.39
2018-08-09T09:13:58.636Z,933.22
2018-08-09T09:14:58.624Z,933.22
2018-08-09T09:15:58.714Z,933.19
2018-08-09T09:16:58.603Z,933.09
2018-08-09T09:17:58.597Z,933.16
2018-08-09T09:18:58.582Z,933.21
2018-08-09T09:19:58.569Z,933.32
2018-08-09T09:20:58.558Z,933.35
2018-08-09T09:21:58.648Z,933.34
2018-08-09T09:22:58.537Z,933.29
2018-08-09T09:23:58.524Z,933.37
2018-08-09T09:24:58.513Z,933.43
2018-08-09T09:25:58.504Z,933.39
2018-08-09T09:26:58.513Z,933.35
2018-08-09T09:27:58.484Z,933.27
2018-08-09T09:28:58.473Z,933.23
2018-08-09T09:29:58.461Z,933.25
2018-08-09T09:30:58.450Z,933.24
2018-08-09T09:31:58.443Z,933.28
2018-08-09T09:32:58.429Z,933.18
2018-08-09T09:33:58.417Z,933.01
2018-08-09T09:34:58.470Z,933.00
2018-08-09T09:35:58.396Z,932.89
2018-08-09T09:36:58.385Z,933.00
2018-08-09T09:37:58.375Z,933.01
2018-08-09T09:38:58.363Z,933.03
2018-08-09T09:39:58.451Z,932.94
2018-08-09T09:40:58.349Z,932.80
2018-08-09T09:41:58.338Z,932.64
2018-08-09T09:42:58.321Z,932.61
2018-08-09T09:43:58.310Z,932.62
2018-08-09T09:44:58.301Z,932.73
2018-08-09T09:45:58.289Z,932.93
2018-08-09T09:46:58.279Z,933.05
2018-08-09T09:47:58.265Z,933.02
2018-08-09T09:48:58.257Z,933.09
2018-08-09T09:49:58.245Z,933.05
2018-08-09T09:50:58.238Z,933.00
2018-08-09T09:51:58.224Z,933.12
2018-08-09T09:52:58.214Z,933.12
2018-08-09T09:53:58.204Z,933.20
2018-08-09T09:54:58.210Z,933.24
2018-08-09T09:55:58.216Z,933.22
2018-08-09T09:56:58.171Z,933.20
2018-08-09T09:57:58.162Z,933.20
2018-08-09T09:58:58.154Z,933.14
2018-08-09T09:59:58.139Z,933.18
2018-08-09T10:00:58.130Z,933.21
2018-08-09T10:01:58.165Z,933.24
2018-08-09T10:02:58.111Z,933.23
2018-08-09T10:03:58.098Z,933.24
2018-08-09T10:04:58.089Z,933.33
2018-08-09T10:05:58.080Z,933.34
2018-08-09T10:06:58.114Z,933.41
2018-08-09T10:07:58.058Z,933.41
2018-08-09T10:08:58.048Z,933.40
2018-08-09T10:09:58.038Z,933.38
2018-08-09T10:10:58.028Z,933.40
2018-08-09T10:11:58.018Z,933.44
2018-08-09T10:12:58.007Z,933.49
2018-08-09T10:13:58.000Z,933.52
2018-08-09T10:14:57.987Z,933.54
2018-08-09T10:15:58.076Z,933.57
2018-08-09T10:16:57.966Z,933.50
2018-08-09T10:17:57.957Z,933.50
2018-08-09T10:18:57.945Z,933.54
2018-08-09T10:19:57.938Z,933.55
2018-08-09T10:20:57.924Z,933.57
2018-08-09T10:21:58.073Z,933.59
2018-08-09T10:22:57.904Z,933.68
2018-08-09T10:23:57.894Z,933.75
2018-08-09T10:24:57.886Z,933.79
2018-08-09T10:25:57.876Z,933.80
2018-08-09T10:26:57.865Z,933.84
2018-08-09T10:27:57.853Z,933.93
2018-08-09T10:28:57.844Z,933.93
2018-08-09T10:29:57.849Z,933.97
2018-08-09T10:30:57.823Z,933.96
2018-08-09T10:31:57.814Z,933.97
2018-08-09T10:32:57.807Z,933.94
2018-08-09T10:33:57.797Z,934.01
2018-08-09T10:34:57.784Z,934.02
2018-08-09T10:35:57.774Z,934.05
2018-08-09T10:36:57.764Z,934.02
2018-08-09T10:37:57.754Z,934.02
2018-08-09T10:38:57.743Z,934.03
2018-08-09T10:39:57.884Z,934.00
2018-08-09T10:40:57.724Z,934.01
2018-08-09T10:41:57.713Z,934.04
2018-08-09T10:42:57.704Z,934.03
2018-08-09T10:43:57.692Z,934.09
2018-08-09T10:44:57.683Z,934.08
2018-08-09T10:45:57.676Z,934.10
2018-08-09T10:46:57.664Z,934.13
2018-08-09T10:47:57.661Z,934.14
2018-08-09T10:48:57.654Z,934.19
2018-08-09T10:49:57.636Z,934.22
2018-08-09T10:50:57.627Z,934.26
2018-08-09T10:51:57.617Z,934.24
2018-08-09T10:52:57.606Z,934.24
2018-08-09T10:53:57.596Z,934.26
2018-08-09T10:54:57.586Z,934.28
2018-08-09T10:55:57.577Z,934.27
2018-08-09T10:56:57.566Z,934.22
2018-08-09T10:57:57.557Z,934.22
2018-08-09T10:58:57.547Z,934.22
2018-08-09T10:59:57.537Z,934.26
2018-08-09T11:00:57.528Z,934.31
2018-08-09T11:01:57.518Z,934.34
2018-08-09T11:02:57.508Z,934.32
2018-08-09T11:03:57.497Z,934.32
2018-08-09T11:04:57.493Z,934.31
2018-08-09T11:05:57.484Z,934.26
2018-08-09T11:06:57.469Z,934.31
2018-08-09T11:07:57.459Z,934.29
2018-08-09T11:08:57.452Z,934.31
2018-08-09T11:09:57.441Z,934.25
2018-08-09T11:10:57.432Z,934.24
2018-08-09T11:11:57.421Z,934.10
2018-08-09T11:12:57.412Z,934.18
2018-08-09T11:13:57.402Z,934.22
2018-08-09T11:14:57.398Z,934.22
2018-08-09T11:15:57.481Z,934.18
2018-08-09T11:16:57.428Z,934.15
2018-08-09T11:17:57.363Z,934.07
2018-08-09T11:18:57.354Z,934.02
2018-08-09T11:19:57.342Z,934.01
2018-08-09T11:20:57.333Z,934.01
2018-08-09T11:21:57.324Z,934.02
2018-08-09T11:22:57.319Z,934.00
2018-08-09T11:23:57.304Z,934.03
2018-08-09T11:24:57.330Z,934.05
2018-08-09T11:25:57.285Z,933.99
2018-08-09T11:26:57.275Z,933.97
2018-08-09T11:27:57.265Z,934.05
2018-08-09T11:28:57.255Z,934.07
2018-08-09T11:29:57.246Z,934.09
2018-08-09T11:30:57.236Z,934.07
2018-08-09T11:31:57.225Z,934.09
2018-08-09T11:32:57.215Z,934.17
2018-08-09T11:33:57.253Z,934.20
2018-08-09T11:34:57.196Z,934.18
2018-08-09T11:35:57.186Z,934.25
2018-08-09T11:36:57.178Z,934.22
2018-08-09T11:37:57.172Z,934.21
2018-08-09T11:38:57.159Z,934.21
2018-08-09T11:39:57.319Z,934.22
2018-08-09T11:40:57.140Z,934.25
2018-08-09T11:41:57.129Z,934.21
2018-08-09T11:42:57.165Z,934.19
2018-08-09T11:43:57.111Z,934.22
2018-08-09T11:44:57.101Z,934.17
2018-08-09T11:45:57.092Z,934.19
2018-08-09T11:46:57.082Z,934.17
2018-08-09T11:47:57.072Z,934.09
2018-08-09T11:48:57.063Z,934.13
2018-08-09T11:49:57.056Z,934.19
2018-08-09T11:50:57.045Z,934.17
2018-08-09T11:51:57.034Z,934.23
2018-08-09T11:52:57.026Z,934.17
2018-08-09T11:53:57.021Z,934.22
2018-08-09T11:54:57.009Z,934.22
2018-08-09T11:55:56.998Z,934.26
2018-08-09T11:56:57.006Z,934.26
2018-08-09T11:57:56.982Z,934.31
2018-08-09T11:58:56.973Z,934.30
2018-08-09T11:59:56.965Z,934.32
2018-08-09T12:00:56.955Z,934.37
2018-08-09T12:01:56.946Z,934.40
2018-08-09T12:02:56.938Z,934.45
2018-08-09T12:03:56.929Z,934.41
2018-08-09T12:04:57.022Z,934.41
2018-08-09T12:05:56.912Z,934.42
2018-08-09T12:06:56.916Z,934.38
2018-08-09T12:07:56.895Z,934.39
2018-08-09T12:08:56.888Z,934.41
2018-08-09T12:09:56.880Z,934.46
2018-08-09T12:10:56.872Z,934.50
2018-08-09T12:11:56.865Z,934.47
2018-08-09T12:12:56.856Z,934.53
2018-08-09T12:13:56.850Z,934.53
2018-08-09T12:14:56.869Z,934.50
2018-08-09T12:15:56.834Z,934.50
2018-08-09T12:16:57.127Z,934.50
2018-08-09T12:17:56.823Z,934.54
2018-08-09T12:18:56.812Z,934.54
2018-08-09T12:19:56.804Z,934.51
2018-08-09T12:20:56.834Z,934.52
2018-08-09T12:21:56.789Z,934.58
2018-08-09T12:22:56.782Z,934.63
2018-08-09T12:23:56.775Z,934.64
2018-08-09T12:24:56.766Z,934.63
2018-08-09T12:25:56.761Z,934.67
2018-08-09T12:26:56.805Z,934.68
2018-08-09T12:27:56.747Z,934.68